sensor_id;sensor_type;location;lat;lon;timestamp;P1;durP1;ratioP1;P2;durP2;ratioP2
26042;SDS011;13818;52.156;5.382;2023-04-08T00:00:25;29.13;;;10.15;;
26042;SDS011;13818;52.156;5.382;2023-04-08T00:02:55;31.75;;;10.15;;
26042;SDS011;13818;52.156;5.382;2023-04-08T00:05:23;27.33;;;10.63;;
26042;SDS011;13818;52.156;5.382;2023-04-08T00:07:50;34.55;;;11.35;;
26042;SDS011;13818;52.156;5.382;2023-04-08T00:10:18;40.35;;;11.88;;
26042;SDS011;13818;52.156;5.382;2023-04-08T00:12:47;35.67;;;10.55;;
26042;SDS011;13818;52.156;5.382;2023-04-08T00:15:20;39.70;;;12.63;;
26042;SDS011;13818;52.156;5.382;2023-04-08T00:18:05;33.42;;;10.77;;
26042;SDS011;13818;52.156;5.382;2023-04-08T00:20:39;39.05;;;13.25;;
26042;SDS011;13818;52.156;5.382;2023-04-08T00:23:09;34.80;;;12.63;;
26042;SDS011;13818;52.156;5.382;2023-04-08T00:25:37;32.47;;;12.20;;
26042;SDS011;13818;52.156;5.382;2023-04-08T00:28:04;29.08;;;10.55;;
26042;SDS011;13818;52.156;5.382;2023-04-08T00:30:38;31.17;;;11.48;;
26042;SDS011;13818;52.156;5.382;2023-04-08T00:33:10;28.45;;;10.32;;
26042;SDS011;13818;52.156;5.382;2023-04-08T00:35:43;37.35;;;11.32;;
26042;SDS011;13818;52.156;5.382;2023-04-08T00:38:12;42.45;;;11.68;;
26042;SDS011;13818;52.156;5.382;2023-04-08T00:40:45;40.50;;;10.73;;
26042;SDS011;13818;52.156;5.382;2023-04-08T00:43:14;30.38;;;10.68;;
26042;SDS011;13818;52.156;5.382;2023-04-08T00:45:49;29.15;;;10.13;;
26042;SDS011;13818;52.156;5.382;2023-04-08T00:48:17;33.28;;;10.98;;
26042;SDS011;13818;52.156;5.382;2023-04-08T00:50:48;35.72;;;10.32;;
26042;SDS011;13818;52.156;5.382;2023-04-08T00:53:16;30.02;;;11.15;;
26042;SDS011;13818;52.156;5.382;2023-04-08T00:55:47;38.03;;;9.88;;
26042;SDS011;13818;52.156;5.382;2023-04-08T00:58:17;31.05;;;8.70;;
26042;SDS011;13818;52.156;5.382;2023-04-08T01:00:48;35.55;;;8.75;;
26042;SDS011;13818;52.156;5.382;2023-04-08T01:03:26;35.22;;;8.13;;
26042;SDS011;13818;52.156;5.382;2023-04-08T01:06:03;32.15;;;7.72;;
26042;SDS011;13818;52.156;5.382;2023-04-08T01:08:37;32.30;;;8.65;;
26042;SDS011;13818;52.156;5.382;2023-04-08T01:11:10;25.75;;;8.63;;
26042;SDS011;13818;52.156;5.382;2023-04-08T01:13:40;26.88;;;8.60;;
26042;SDS011;13818;52.156;5.382;2023-04-08T01:16:16;26.40;;;8.43;;
26042;SDS011;13818;52.156;5.382;2023-04-08T01:18:45;32.67;;;8.65;;
26042;SDS011;13818;52.156;5.382;2023-04-08T01:21:13;34.67;;;9.55;;
26042;SDS011;13818;52.156;5.382;2023-04-08T01:23:50;29.98;;;8.43;;
26042;SDS011;13818;52.156;5.382;2023-04-08T01:26:26;35.95;;;9.85;;
26042;SDS011;13818;52.156;5.382;2023-04-08T01:28:59;26.10;;;9.27;;
26042;SDS011;13818;52.156;5.382;2023-04-08T01:31:28;26.77;;;9.23;;
26042;SDS011;13818;52.156;5.382;2023-04-08T01:33:57;32.25;;;9.60;;
26042;SDS011;13818;52.156;5.382;2023-04-08T01:36:30;30.77;;;8.57;;
26042;SDS011;13818;52.156;5.382;2023-04-08T01:39:00;29.13;;;10.10;;
26042;SDS011;13818;52.156;5.382;2023-04-08T01:41:33;32.83;;;9.82;;
26042;SDS011;13818;52.156;5.382;2023-04-08T01:44:03;27.30;;;9.50;;
26042;SDS011;13818;52.156;5.382;2023-04-08T01:46:31;31.13;;;9.80;;
26042;SDS011;13818;52.156;5.382;2023-04-08T01:49:00;35.72;;;9.57;;
26042;SDS011;13818;52.156;5.382;2023-04-08T01:51:31;32.78;;;9.45;;
26042;SDS011;13818;52.156;5.382;2023-04-08T01:54:00;25.80;;;9.25;;
26042;SDS011;13818;52.156;5.382;2023-04-08T01:56:27;24.40;;;8.73;;
26042;SDS011;13818;52.156;5.382;2023-04-08T01:59:00;25.63;;;8.02;;
26042;SDS011;13818;52.156;5.382;2023-04-08T02:01:30;30.55;;;8.57;;
26042;SDS011;13818;52.156;5.382;2023-04-08T02:04:01;37.70;;;8.93;;
26042;SDS011;13818;52.156;5.382;2023-04-08T02:06:37;26.23;;;8.45;;
26042;SDS011;13818;52.156;5.382;2023-04-08T02:09:04;32.88;;;9.25;;
26042;SDS011;13818;52.156;5.382;2023-04-08T02:11:32;28.73;;;7.53;;
26042;SDS011;13818;52.156;5.382;2023-04-08T02:14:02;27.25;;;8.68;;
26042;SDS011;13818;52.156;5.382;2023-04-08T02:16:33;24.50;;;8.05;;
26042;SDS011;13818;52.156;5.382;2023-04-08T02:19:09;34.70;;;9.30;;
26042;SDS011;13818;52.156;5.382;2023-04-08T02:21:46;35.75;;;9.73;;
26042;SDS011;13818;52.156;5.382;2023-04-08T02:24:15;33.25;;;8.93;;
26042;SDS011;13818;52.156;5.382;2023-04-08T02:26:44;35.88;;;8.75;;
26042;SDS011;13818;52.156;5.382;2023-04-08T02:29:17;44.80;;;9.55;;
26042;SDS011;13818;52.156;5.382;2023-04-08T02:31:51;35.80;;;9.10;;
26042;SDS011;13818;52.156;5.382;2023-04-08T02:34:20;34.70;;;9.80;;
26042;SDS011;13818;52.156;5.382;2023-04-08T02:36:50;34.42;;;9.73;;
26042;SDS011;13818;52.156;5.382;2023-04-08T02:39:18;31.77;;;10.80;;
26042;SDS011;13818;52.156;5.382;2023-04-08T02:41:45;34.70;;;10.05;;
26042;SDS011;13818;52.156;5.382;2023-04-08T02:44:14;31.60;;;8.85;;
26042;SDS011;13818;52.156;5.382;2023-04-08T02:46:46;35.97;;;10.63;;
26042;SDS011;13818;52.156;5.382;2023-04-08T02:49:17;31.90;;;9.85;;
26042;SDS011;13818;52.156;5.382;2023-04-08T02:51:46;26.08;;;9.20;;
26042;SDS011;13818;52.156;5.382;2023-04-08T02:54:16;39.67;;;11.63;;
26042;SDS011;13818;52.156;5.382;2023-04-08T02:56:46;46.53;;;11.75;;
26042;SDS011;13818;52.156;5.382;2023-04-08T02:59:14;28.40;;;10.68;;
26042;SDS011;13818;52.156;5.382;2023-04-08T03:01:43;29.45;;;10.82;;
26042;SDS011;13818;52.156;5.382;2023-04-08T03:04:10;32.50;;;11.45;;
26042;SDS011;13818;52.156;5.382;2023-04-08T03:06:37;38.10;;;11.88;;
26042;SDS011;13818;52.156;5.382;2023-04-08T03:09:07;35.47;;;13.32;;
26042;SDS011;13818;52.156;5.382;2023-04-08T03:11:37;41.33;;;14.63;;
26042;SDS011;13818;52.156;5.382;2023-04-08T03:14:10;36.72;;;12.65;;
26042;SDS011;13818;52.156;5.382;2023-04-08T03:16:39;47.63;;;13.40;;
26042;SDS011;13818;52.156;5.382;2023-04-08T03:19:08;30.92;;;12.00;;
26042;SDS011;13818;52.156;5.382;2023-04-08T03:21:36;42.00;;;13.02;;
26042;SDS011;13818;52.156;5.382;2023-04-08T03:24:04;39.15;;;13.23;;
26042;SDS011;13818;52.156;5.382;2023-04-08T03:26:31;47.40;;;12.95;;
26042;SDS011;13818;52.156;5.382;2023-04-08T03:28:59;36.42;;;12.88;;
26042;SDS011;13818;52.156;5.382;2023-04-08T03:31:28;37.90;;;12.88;;
26042;SDS011;13818;52.156;5.382;2023-04-08T03:33:58;37.10;;;13.35;;
26042;SDS011;13818;52.156;5.382;2023-04-08T03:36:27;45.03;;;13.68;;
26042;SDS011;13818;52.156;5.382;2023-04-08T03:38:58;45.15;;;14.43;;
26042;SDS011;13818;52.156;5.382;2023-04-08T03:41:25;51.65;;;14.80;;
26042;SDS011;13818;52.156;5.382;2023-04-08T03:43:53;39.83;;;14.55;;
26042;SDS011;13818;52.156;5.382;2023-04-08T03:46:23;42.15;;;12.50;;
26042;SDS011;13818;52.156;5.382;2023-04-08T03:48:50;46.78;;;12.73;;
26042;SDS011;13818;52.156;5.382;2023-04-08T03:51:18;38.50;;;13.65;;
26042;SDS011;13818;52.156;5.382;2023-04-08T03:53:46;44.70;;;10.82;;
26042;SDS011;13818;52.156;5.382;2023-04-08T03:56:14;33.58;;;12.88;;
26042;SDS011;13818;52.156;5.382;2023-04-08T03:58:41;36.78;;;12.02;;
26042;SDS011;13818;52.156;5.382;2023-04-08T04:01:09;44.50;;;12.07;;
26042;SDS011;13818;52.156;5.382;2023-04-08T04:06:05;39.63;;;12.60;;
26042;SDS011;13818;52.156;5.382;2023-04-08T04:08:35;30.77;;;11.52;;
26042;SDS011;13818;52.156;5.382;2023-04-08T04:11:04;35.00;;;11.30;;
26042;SDS011;13818;52.156;5.382;2023-04-08T04:13:31;29.15;;;10.88;;
26042;SDS011;13818;52.156;5.382;2023-04-08T04:16:03;29.70;;;11.40;;
26042;SDS011;13818;52.156;5.382;2023-04-08T04:18:34;26.42;;;10.85;;
26042;SDS011;13818;52.156;5.382;2023-04-08T04:21:10;29.13;;;11.20;;
26042;SDS011;13818;52.156;5.382;2023-04-08T04:23:38;27.35;;;10.98;;
26042;SDS011;13818;52.156;5.382;2023-04-08T04:26:10;27.48;;;11.48;;
26042;SDS011;13818;52.156;5.382;2023-04-08T04:28:40;29.90;;;12.95;;
26042;SDS011;13818;52.156;5.382;2023-04-08T04:31:16;28.90;;;12.82;;
26042;SDS011;13818;52.156;5.382;2023-04-08T04:33:46;30.35;;;12.40;;
26042;SDS011;13818;52.156;5.382;2023-04-08T04:36:14;30.65;;;11.02;;
26042;SDS011;13818;52.156;5.382;2023-04-08T04:38:44;29.30;;;12.13;;
26042;SDS011;13818;52.156;5.382;2023-04-08T04:41:13;26.25;;;11.75;;
26042;SDS011;13818;52.156;5.382;2023-04-08T04:43:42;25.30;;;11.60;;
26042;SDS011;13818;52.156;5.382;2023-04-08T04:48:38;23.83;;;10.20;;
26042;SDS011;13818;52.156;5.382;2023-04-08T04:51:06;27.67;;;12.52;;
26042;SDS011;13818;52.156;5.382;2023-04-08T04:53:33;28.40;;;11.65;;
26042;SDS011;13818;52.156;5.382;2023-04-08T04:56:01;28.85;;;12.13;;
26042;SDS011;13818;52.156;5.382;2023-04-08T04:58:30;28.05;;;11.52;;
26042;SDS011;13818;52.156;5.382;2023-04-08T05:00:58;27.98;;;12.23;;
26042;SDS011;13818;52.156;5.382;2023-04-08T05:03:25;27.33;;;11.98;;
26042;SDS011;13818;52.156;5.382;2023-04-08T05:05:55;29.83;;;11.68;;
26042;SDS011;13818;52.156;5.382;2023-04-08T05:08:23;31.92;;;12.88;;
26042;SDS011;13818;52.156;5.382;2023-04-08T05:10:56;30.98;;;12.43;;
26042;SDS011;13818;52.156;5.382;2023-04-08T05:13:26;28.67;;;12.48;;
26042;SDS011;13818;52.156;5.382;2023-04-08T05:15:58;27.27;;;11.80;;
26042;SDS011;13818;52.156;5.382;2023-04-08T05:18:25;28.88;;;12.85;;
26042;SDS011;13818;52.156;5.382;2023-04-08T05:20:53;26.70;;;12.00;;
26042;SDS011;13818;52.156;5.382;2023-04-08T05:23:22;30.45;;;11.93;;
26042;SDS011;13818;52.156;5.382;2023-04-08T05:25:49;23.45;;;11.15;;
26042;SDS011;13818;52.156;5.382;2023-04-08T05:28:22;25.83;;;11.50;;
26042;SDS011;13818;52.156;5.382;2023-04-08T05:30:50;30.75;;;13.02;;
26042;SDS011;13818;52.156;5.382;2023-04-08T05:33:21;25.73;;;10.73;;
26042;SDS011;13818;52.156;5.382;2023-04-08T05:35:50;27.35;;;10.70;;
26042;SDS011;13818;52.156;5.382;2023-04-08T05:38:18;26.13;;;12.02;;
26042;SDS011;13818;52.156;5.382;2023-04-08T05:40:46;23.52;;;11.00;;
26042;SDS011;13818;52.156;5.382;2023-04-08T05:43:13;25.00;;;10.93;;
26042;SDS011;13818;52.156;5.382;2023-04-08T05:45:43;21.45;;;11.07;;
26042;SDS011;13818;52.156;5.382;2023-04-08T05:48:16;21.10;;;9.93;;
26042;SDS011;13818;52.156;5.382;2023-04-08T05:50:45;15.52;;;7.72;;
26042;SDS011;13818;52.156;5.382;2023-04-08T05:53:13;17.90;;;8.38;;
26042;SDS011;13818;52.156;5.382;2023-04-08T05:55:40;16.20;;;8.25;;
26042;SDS011;13818;52.156;5.382;2023-04-08T05:58:08;14.95;;;7.93;;
26042;SDS011;13818;52.156;5.382;2023-04-08T06:00:35;14.05;;;7.50;;
26042;SDS011;13818;52.156;5.382;2023-04-08T06:03:02;13.88;;;7.35;;
26042;SDS011;13818;52.156;5.382;2023-04-08T06:05:30;15.57;;;7.90;;
26042;SDS011;13818;52.156;5.382;2023-04-08T06:07:59;15.60;;;7.90;;
26042;SDS011;13818;52.156;5.382;2023-04-08T06:10:26;13.65;;;8.18;;
26042;SDS011;13818;52.156;5.382;2023-04-08T06:12:53;13.07;;;7.53;;
26042;SDS011;13818;52.156;5.382;2023-04-08T06:15:21;12.93;;;6.85;;
26042;SDS011;13818;52.156;5.382;2023-04-08T06:17:49;10.10;;;5.90;;
26042;SDS011;13818;52.156;5.382;2023-04-08T06:20:18;13.23;;;6.18;;
26042;SDS011;13818;52.156;5.382;2023-04-08T06:22:49;15.10;;;6.72;;
26042;SDS011;13818;52.156;5.382;2023-04-08T06:25:19;12.87;;;6.57;;
26042;SDS011;13818;52.156;5.382;2023-04-08T06:27:49;11.50;;;6.70;;
26042;SDS011;13818;52.156;5.382;2023-04-08T06:30:16;9.73;;;6.60;;
26042;SDS011;13818;52.156;5.382;2023-04-08T06:32:44;12.35;;;6.15;;
26042;SDS011;13818;52.156;5.382;2023-04-08T06:35:17;11.80;;;6.65;;
26042;SDS011;13818;52.156;5.382;2023-04-08T06:37:47;12.52;;;6.72;;
26042;SDS011;13818;52.156;5.382;2023-04-08T06:40:15;10.68;;;6.45;;
26042;SDS011;13818;52.156;5.382;2023-04-08T06:42:44;9.32;;;6.32;;
26042;SDS011;13818;52.156;5.382;2023-04-08T06:45:11;11.20;;;6.47;;
26042;SDS011;13818;52.156;5.382;2023-04-08T06:47:39;10.52;;;6.00;;
26042;SDS011;13818;52.156;5.382;2023-04-08T06:50:12;10.40;;;6.18;;
26042;SDS011;13818;52.156;5.382;2023-04-08T06:52:42;10.63;;;7.13;;
26042;SDS011;13818;52.156;5.382;2023-04-08T06:55:12;10.48;;;6.40;;
26042;SDS011;13818;52.156;5.382;2023-04-08T06:57:40;11.43;;;6.60;;
26042;SDS011;13818;52.156;5.382;2023-04-08T07:00:12;12.95;;;7.63;;
26042;SDS011;13818;52.156;5.382;2023-04-08T07:02:42;9.43;;;5.68;;
26042;SDS011;13818;52.156;5.382;2023-04-08T07:05:10;10.35;;;6.22;;
26042;SDS011;13818;52.156;5.382;2023-04-08T07:07:41;11.68;;;6.88;;
26042;SDS011;13818;52.156;5.382;2023-04-08T07:10:11;10.93;;;6.35;;
26042;SDS011;13818;52.156;5.382;2023-04-08T07:12:39;10.18;;;6.03;;
26042;SDS011;13818;52.156;5.382;2023-04-08T07:15:12;14.00;;;5.88;;
26042;SDS011;13818;52.156;5.382;2023-04-08T07:17:40;11.07;;;5.80;;
26042;SDS011;13818;52.156;5.382;2023-04-08T07:20:11;16.50;;;5.82;;
26042;SDS011;13818;52.156;5.382;2023-04-08T07:22:49;10.48;;;6.70;;
26042;SDS011;13818;52.156;5.382;2023-04-08T07:25:27;9.27;;;5.78;;
26042;SDS011;13818;52.156;5.382;2023-04-08T07:28:02;12.20;;;6.07;;
26042;SDS011;13818;52.156;5.382;2023-04-08T07:30:32;10.75;;;6.55;;
26042;SDS011;13818;52.156;5.382;2023-04-08T07:33:09;10.23;;;5.75;;
26042;SDS011;13818;52.156;5.382;2023-04-08T07:35:40;10.68;;;6.25;;
26042;SDS011;13818;52.156;5.382;2023-04-08T07:38:12;8.90;;;5.50;;
26042;SDS011;13818;52.156;5.382;2023-04-08T07:40:41;9.68;;;5.63;;
26042;SDS011;13818;52.156;5.382;2023-04-08T07:43:09;10.93;;;6.03;;
26042;SDS011;13818;52.156;5.382;2023-04-08T07:45:50;8.73;;;5.47;;
26042;SDS011;13818;52.156;5.382;2023-04-08T07:48:29;10.90;;;5.93;;
26042;SDS011;13818;52.156;5.382;2023-04-08T07:51:02;8.35;;;5.95;;
26042;SDS011;13818;52.156;5.382;2023-04-08T07:53:36;10.90;;;6.32;;
26042;SDS011;13818;52.156;5.382;2023-04-08T07:56:09;13.77;;;6.50;;
26042;SDS011;13818;52.156;5.382;2023-04-08T07:58:51;11.57;;;6.32;;
26042;SDS011;13818;52.156;5.382;2023-04-08T08:01:23;10.50;;;6.13;;
26042;SDS011;13818;52.156;5.382;2023-04-08T08:03:52;11.18;;;6.38;;
26042;SDS011;13818;52.156;5.382;2023-04-08T08:06:20;13.18;;;6.43;;
26042;SDS011;13818;52.156;5.382;2023-04-08T08:08:49;11.85;;;6.20;;
26042;SDS011;13818;52.156;5.382;2023-04-08T08:11:20;11.52;;;6.60;;
26042;SDS011;13818;52.156;5.382;2023-04-08T08:13:51;12.38;;;6.57;;
26042;SDS011;13818;52.156;5.382;2023-04-08T08:16:18;9.95;;;5.93;;
26042;SDS011;13818;52.156;5.382;2023-04-08T08:18:47;11.85;;;6.90;;
26042;SDS011;13818;52.156;5.382;2023-04-08T08:21:15;12.13;;;6.80;;
26042;SDS011;13818;52.156;5.382;2023-04-08T08:23:42;13.10;;;6.85;;
26042;SDS011;13818;52.156;5.382;2023-04-08T08:26:12;12.18;;;6.85;;
26042;SDS011;13818;52.156;5.382;2023-04-08T08:28:42;15.68;;;7.75;;
26042;SDS011;13818;52.156;5.382;2023-04-08T08:31:09;16.13;;;10.63;;
26042;SDS011;13818;52.156;5.382;2023-04-08T08:33:39;21.27;;;11.77;;
26042;SDS011;13818;52.156;5.382;2023-04-08T08:36:08;33.45;;;18.38;;
26042;SDS011;13818;52.156;5.382;2023-04-08T08:41:03;39.75;;;20.55;;
26042;SDS011;13818;52.156;5.382;2023-04-08T08:43:34;24.38;;;13.30;;
26042;SDS011;13818;52.156;5.382;2023-04-08T08:46:02;21.20;;;11.23;;
26042;SDS011;13818;52.156;5.382;2023-04-08T08:48:30;19.00;;;9.52;;
26042;SDS011;13818;52.156;5.382;2023-04-08T08:50:58;12.13;;;7.05;;
26042;SDS011;13818;52.156;5.382;2023-04-08T08:53:29;14.88;;;7.30;;
26042;SDS011;13818;52.156;5.382;2023-04-08T08:55:57;13.32;;;7.35;;
26042;SDS011;13818;52.156;5.382;2023-04-08T08:58:26;14.20;;;7.30;;
26042;SDS011;13818;52.156;5.382;2023-04-08T09:00:54;12.70;;;6.93;;
26042;SDS011;13818;52.156;5.382;2023-04-08T09:03:22;11.70;;;7.38;;
26042;SDS011;13818;52.156;5.382;2023-04-08T09:05:52;11.85;;;7.35;;
26042;SDS011;13818;52.156;5.382;2023-04-08T09:08:24;15.43;;;7.32;;
26042;SDS011;13818;52.156;5.382;2023-04-08T09:10:54;13.13;;;7.13;;
26042;SDS011;13818;52.156;5.382;2023-04-08T09:13:22;14.40;;;7.85;;
26042;SDS011;13818;52.156;5.382;2023-04-08T09:16:00;11.95;;;7.05;;
26042;SDS011;13818;52.156;5.382;2023-04-08T09:18:32;12.27;;;7.38;;
26042;SDS011;13818;52.156;5.382;2023-04-08T09:21:01;13.63;;;7.07;;
26042;SDS011;13818;52.156;5.382;2023-04-08T09:23:39;18.17;;;7.65;;
26042;SDS011;13818;52.156;5.382;2023-04-08T09:26:10;12.65;;;7.15;;
26042;SDS011;13818;52.156;5.382;2023-04-08T09:28:39;10.85;;;6.50;;
26042;SDS011;13818;52.156;5.382;2023-04-08T09:31:21;12.60;;;6.75;;
26042;SDS011;13818;52.156;5.382;2023-04-08T09:33:49;12.32;;;7.10;;
26042;SDS011;13818;52.156;5.382;2023-04-08T09:36:22;17.08;;;7.05;;
26042;SDS011;13818;52.156;5.382;2023-04-08T09:38:52;11.65;;;6.78;;
26042;SDS011;13818;52.156;5.382;2023-04-08T09:41:22;12.77;;;7.28;;
26042;SDS011;13818;52.156;5.382;2023-04-08T09:43:52;13.05;;;6.72;;
26042;SDS011;13818;52.156;5.382;2023-04-08T09:46:24;10.70;;;6.18;;
26042;SDS011;13818;52.156;5.382;2023-04-08T09:48:58;20.48;;;6.85;;
26042;SDS011;13818;52.156;5.382;2023-04-08T09:51:31;11.40;;;6.60;;
26042;SDS011;13818;52.156;5.382;2023-04-08T09:54:02;10.88;;;6.63;;
26042;SDS011;13818;52.156;5.382;2023-04-08T09:56:40;13.50;;;6.80;;
26042;SDS011;13818;52.156;5.382;2023-04-08T09:59:12;13.43;;;7.20;;
26042;SDS011;13818;52.156;5.382;2023-04-08T10:01:43;13.93;;;6.55;;
26042;SDS011;13818;52.156;5.382;2023-04-08T10:04:14;11.35;;;6.35;;
26042;SDS011;13818;52.156;5.382;2023-04-08T10:06:46;15.23;;;6.88;;
26042;SDS011;13818;52.156;5.382;2023-04-08T10:09:18;11.20;;;6.45;;
26042;SDS011;13818;52.156;5.382;2023-04-08T10:11:48;13.68;;;6.47;;
26042;SDS011;13818;52.156;5.382;2023-04-08T10:14:20;12.32;;;6.60;;
26042;SDS011;13818;52.156;5.382;2023-04-08T10:17:02;13.02;;;6.45;;
26042;SDS011;13818;52.156;5.382;2023-04-08T10:19:49;13.15;;;6.30;;
26042;SDS011;13818;52.156;5.382;2023-04-08T10:25:30;15.48;;;6.93;;
26042;SDS011;13818;52.156;5.382;2023-04-08T10:30:51;15.50;;;6.00;;
26042;SDS011;13818;52.156;5.382;2023-04-08T10:33:30;11.85;;;6.35;;
26042;SDS011;13818;52.156;5.382;2023-04-08T10:35:59;15.85;;;6.93;;
26042;SDS011;13818;52.156;5.382;2023-04-08T10:38:39;12.68;;;6.55;;
26042;SDS011;13818;52.156;5.382;2023-04-08T10:41:08;12.23;;;5.80;;
26042;SDS011;13818;52.156;5.382;2023-04-08T10:43:37;10.73;;;5.53;;
26042;SDS011;13818;52.156;5.382;2023-04-08T10:46:06;12.82;;;6.18;;
26042;SDS011;13818;52.156;5.382;2023-04-08T10:48:36;12.70;;;6.10;;
26042;SDS011;13818;52.156;5.382;2023-04-08T10:51:04;13.77;;;5.93;;
26042;SDS011;13818;52.156;5.382;2023-04-08T10:53:32;10.98;;;6.07;;
26042;SDS011;13818;52.156;5.382;2023-04-08T10:56:03;12.63;;;7.18;;
26042;SDS011;13818;52.156;5.382;2023-04-08T10:58:34;11.43;;;5.90;;
26042;SDS011;13818;52.156;5.382;2023-04-08T11:01:04;12.70;;;6.20;;
26042;SDS011;13818;52.156;5.382;2023-04-08T11:03:32;12.02;;;6.15;;
26042;SDS011;13818;52.156;5.382;2023-04-08T11:06:01;11.63;;;5.97;;
26042;SDS011;13818;52.156;5.382;2023-04-08T11:08:35;13.38;;;6.05;;
26042;SDS011;13818;52.156;5.382;2023-04-08T11:11:05;13.55;;;5.78;;
26042;SDS011;13818;52.156;5.382;2023-04-08T11:16:49;10.07;;;5.38;;
26042;SDS011;13818;52.156;5.382;2023-04-08T11:20:02;14.98;;;5.63;;
26042;SDS011;13818;52.156;5.382;2023-04-08T11:22:36;9.60;;;5.72;;
26042;SDS011;13818;52.156;5.382;2023-04-08T11:27:54;12.35;;;5.57;;
26042;SDS011;13818;52.156;5.382;2023-04-08T11:30:25;12.40;;;6.03;;
26042;SDS011;13818;52.156;5.382;2023-04-08T11:32:58;11.50;;;5.68;;
26042;SDS011;13818;52.156;5.382;2023-04-08T11:35:27;10.57;;;4.60;;
26042;SDS011;13818;52.156;5.382;2023-04-08T11:37:55;10.80;;;5.40;;
26042;SDS011;13818;52.156;5.382;2023-04-08T11:40:23;12.85;;;4.95;;
26042;SDS011;13818;52.156;5.382;2023-04-08T11:42:51;11.95;;;5.15;;
26042;SDS011;13818;52.156;5.382;2023-04-08T11:45:20;13.63;;;4.82;;
26042;SDS011;13818;52.156;5.382;2023-04-08T11:47:52;11.65;;;5.85;;
26042;SDS011;13818;52.156;5.382;2023-04-08T11:50:25;8.93;;;4.75;;
26042;SDS011;13818;52.156;5.382;2023-04-08T11:52:54;11.50;;;5.30;;
26042;SDS011;13818;52.156;5.382;2023-04-08T11:55:25;10.48;;;5.13;;
26042;SDS011;13818;52.156;5.382;2023-04-08T11:57:56;13.93;;;4.95;;
26042;SDS011;13818;52.156;5.382;2023-04-08T12:00:31;13.98;;;5.45;;
26042;SDS011;13818;52.156;5.382;2023-04-08T12:03:01;11.32;;;5.38;;
26042;SDS011;13818;52.156;5.382;2023-04-08T12:05:30;12.85;;;6.05;;
26042;SDS011;13818;52.156;5.382;2023-04-08T12:07:57;13.48;;;6.07;;
26042;SDS011;13818;52.156;5.382;2023-04-08T12:10:25;13.75;;;6.35;;
26042;SDS011;13818;52.156;5.382;2023-04-08T12:12:56;10.90;;;5.93;;
26042;SDS011;13818;52.156;5.382;2023-04-08T12:15:23;12.25;;;6.50;;
26042;SDS011;13818;52.156;5.382;2023-04-08T12:17:51;13.77;;;6.00;;
26042;SDS011;13818;52.156;5.382;2023-04-08T12:20:20;13.48;;;5.57;;
26042;SDS011;13818;52.156;5.382;2023-04-08T12:22:49;13.25;;;6.32;;
26042;SDS011;13818;52.156;5.382;2023-04-08T12:25:16;14.00;;;5.97;;
26042;SDS011;13818;52.156;5.382;2023-04-08T12:27:44;15.07;;;7.35;;
26042;SDS011;13818;52.156;5.382;2023-04-08T12:30:16;12.13;;;6.07;;
26042;SDS011;13818;52.156;5.382;2023-04-08T12:32:43;12.30;;;6.40;;
26042;SDS011;13818;52.156;5.382;2023-04-08T12:35:13;16.40;;;6.45;;
26042;SDS011;13818;52.156;5.382;2023-04-08T12:37:46;13.40;;;6.50;;
26042;SDS011;13818;52.156;5.382;2023-04-08T12:40:15;11.98;;;5.85;;
26042;SDS011;13818;52.156;5.382;2023-04-08T12:42:43;14.52;;;6.32;;
26042;SDS011;13818;52.156;5.382;2023-04-08T12:45:13;12.48;;;5.93;;
26042;SDS011;13818;52.156;5.382;2023-04-08T12:47:43;14.05;;;7.07;;
26042;SDS011;13818;52.156;5.382;2023-04-08T12:50:11;13.25;;;6.18;;
26042;SDS011;13818;52.156;5.382;2023-04-08T12:52:41;13.90;;;6.20;;
26042;SDS011;13818;52.156;5.382;2023-04-08T12:55:10;12.90;;;6.25;;
26042;SDS011;13818;52.156;5.382;2023-04-08T12:57:40;11.73;;;6.80;;
26042;SDS011;13818;52.156;5.382;2023-04-08T13:00:16;13.13;;;7.00;;
26042;SDS011;13818;52.156;5.382;2023-04-08T13:02:48;13.05;;;6.53;;
26042;SDS011;13818;52.156;5.382;2023-04-08T13:05:17;12.43;;;6.70;;
26042;SDS011;13818;52.156;5.382;2023-04-08T13:07:47;11.18;;;6.00;;
26042;SDS011;13818;52.156;5.382;2023-04-08T13:10:16;15.23;;;6.53;;
26042;SDS011;13818;52.156;5.382;2023-04-08T13:12:47;16.67;;;6.43;;
26042;SDS011;13818;52.156;5.382;2023-04-08T13:15:14;13.25;;;5.93;;
26042;SDS011;13818;52.156;5.382;2023-04-08T13:17:42;12.88;;;6.15;;
26042;SDS011;13818;52.156;5.382;2023-04-08T13:20:10;12.27;;;6.05;;
26042;SDS011;13818;52.156;5.382;2023-04-08T13:22:42;17.90;;;7.35;;
26042;SDS011;13818;52.156;5.382;2023-04-08T13:25:41;10.80;;;5.80;;
26042;SDS011;13818;52.156;5.382;2023-04-08T13:28:09;11.23;;;5.35;;
26042;SDS011;13818;52.156;5.382;2023-04-08T13:30:44;10.95;;;5.90;;
26042;SDS011;13818;52.156;5.382;2023-04-08T13:33:11;12.68;;;6.25;;
26042;SDS011;13818;52.156;5.382;2023-04-08T13:35:39;11.80;;;6.03;;
26042;SDS011;13818;52.156;5.382;2023-04-08T13:38:06;12.82;;;6.65;;
26042;SDS011;13818;52.156;5.382;2023-04-08T13:40:39;11.50;;;6.18;;
26042;SDS011;13818;52.156;5.382;2023-04-08T13:43:09;10.27;;;5.63;;
26042;SDS011;13818;52.156;5.382;2023-04-08T13:45:40;17.08;;;6.38;;
26042;SDS011;13818;52.156;5.382;2023-04-08T13:48:10;9.27;;;5.32;;
26042;SDS011;13818;52.156;5.382;2023-04-08T13:50:39;11.77;;;5.57;;
26042;SDS011;13818;52.156;5.382;2023-04-08T13:53:08;11.95;;;5.53;;
26042;SDS011;13818;52.156;5.382;2023-04-08T13:55:47;11.80;;;5.50;;
26042;SDS011;13818;52.156;5.382;2023-04-08T13:58:22;12.02;;;5.90;;
26042;SDS011;13818;52.156;5.382;2023-04-08T14:00:55;11.05;;;6.03;;
26042;SDS011;13818;52.156;5.382;2023-04-08T14:03:23;12.60;;;5.97;;
26042;SDS011;13818;52.156;5.382;2023-04-08T14:05:51;11.80;;;6.15;;
26042;SDS011;13818;52.156;5.382;2023-04-08T14:08:25;14.48;;;6.43;;
26042;SDS011;13818;52.156;5.382;2023-04-08T14:10:57;13.90;;;6.07;;
26042;SDS011;13818;52.156;5.382;2023-04-08T14:13:30;11.52;;;5.75;;
26042;SDS011;13818;52.156;5.382;2023-04-08T14:16:00;14.48;;;6.22;;
26042;SDS011;13818;52.156;5.382;2023-04-08T14:18:34;11.93;;;5.72;;
26042;SDS011;13818;52.156;5.382;2023-04-08T14:21:02;14.27;;;6.43;;
26042;SDS011;13818;52.156;5.382;2023-04-08T14:23:30;11.45;;;5.63;;
26042;SDS011;13818;52.156;5.382;2023-04-08T14:26:05;10.55;;;5.28;;
26042;SDS011;13818;52.156;5.382;2023-04-08T14:28:41;16.73;;;7.05;;
26042;SDS011;13818;52.156;5.382;2023-04-08T14:31:08;16.75;;;7.03;;
26042;SDS011;13818;52.156;5.382;2023-04-08T14:33:39;15.85;;;6.30;;
26042;SDS011;13818;52.156;5.382;2023-04-08T14:36:12;17.58;;;7.30;;
26042;SDS011;13818;52.156;5.382;2023-04-08T14:38:43;12.95;;;6.05;;
26042;SDS011;13818;52.156;5.382;2023-04-08T14:41:15;14.05;;;5.80;;
26042;SDS011;13818;52.156;5.382;2023-04-08T14:43:42;12.77;;;5.47;;
26042;SDS011;13818;52.156;5.382;2023-04-08T14:46:12;14.10;;;6.05;;
26042;SDS011;13818;52.156;5.382;2023-04-08T14:48:48;13.55;;;6.45;;
26042;SDS011;13818;52.156;5.382;2023-04-08T14:51:18;12.60;;;6.68;;
26042;SDS011;13818;52.156;5.382;2023-04-08T14:53:49;13.32;;;5.72;;
26042;SDS011;13818;52.156;5.382;2023-04-08T14:56:17;10.15;;;4.75;;
26042;SDS011;13818;52.156;5.382;2023-04-08T14:58:47;12.70;;;5.53;;
26042;SDS011;13818;52.156;5.382;2023-04-08T15:01:15;10.13;;;5.07;;
26042;SDS011;13818;52.156;5.382;2023-04-08T15:03:46;9.30;;;4.68;;
26042;SDS011;13818;52.156;5.382;2023-04-08T15:06:13;13.55;;;4.95;;
26042;SDS011;13818;52.156;5.382;2023-04-08T15:08:43;10.77;;;5.32;;